sensor_id;sensor_type;location;lat;lon;timestamp;temperature;humidity
64654;DHT22;51065;48.884;12.598;2022-07-10T00:00:10;15.00;99.90
64654;DHT22;51065;48.884;12.598;2022-07-10T00:02:36;15.00;99.90
64654;DHT22;51065;48.884;12.598;2022-07-10T00:05:02;15.00;99.90
64654;DHT22;51065;48.884;12.598;2022-07-10T00:07:28;15.00;99.90
64654;DHT22;51065;48.884;12.598;2022-07-10T00:09:54;14.90;99.90
64654;DHT22;51065;48.884;12.598;2022-07-10T00:12:20;14.90;99.90
64654;DHT22;51065;48.884;12.598;2022-07-10T00:14:45;14.80;99.90
64654;DHT22;51065;48.884;12.598;2022-07-10T00:17:11;14.80;99.90
64654;DHT22;51065;48.884;12.598;2022-07-10T00:19:36;14.80;99.90
64654;DHT22;51065;48.884;12.598;2022-07-10T00:22:02;14.70;99.90
64654;DHT22;51065;48.884;12.598;2022-07-10T00:24:28;14.70;99.90
64654;DHT22;51065;48.884;12.598;2022-07-10T00:26:53;14.60;99.90
64654;DHT22;51065;48.884;12.598;2022-07-10T00:29:19;14.60;99.90
64654;DHT22;51065;48.884;12.598;2022-07-10T00:31:44;14.60;99.90
64654;DHT22;51065;48.884;12.598;2022-07-10T00:34:10;14.50;99.90
64654;DHT22;51065;48.884;12.598;2022-07-10T00:36:37;14.50;99.90
64654;DHT22;51065;48.884;12.598;2022-07-10T00:39:02;14.30;99.90
64654;DHT22;51065;48.884;12.598;2022-07-10T00:41:28;14.20;99.90
64654;DHT22;51065;48.884;12.598;2022-07-10T00:43:55;14.20;99.90
64654;DHT22;51065;48.884;12.598;2022-07-10T00:46:21;14.20;99.90
64654;DHT22;51065;48.884;12.598;2022-07-10T00:48:47;14.20;99.90
64654;DHT22;51065;48.884;12.598;2022-07-10T00:51:15;14.20;99.90
64654;DHT22;51065;48.884;12.598;2022-07-10T00:53:43;14.20;99.90
64654;DHT22;51065;48.884;12.598;2022-07-10T00:56:10;14.30;99.90
64654;DHT22;51065;48.884;12.598;2022-07-10T00:58:37;14.30;99.90
64654;DHT22;51065;48.884;12.598;2022-07-10T01:01:07;14.40;99.90
64654;DHT22;51065;48.884;12.598;2022-07-10T01:03:33;14.50;99.90
64654;DHT22;51065;48.884;12.598;2022-07-10T01:05:58;14.50;99.90
64654;DHT22;51065;48.884;12.598;2022-07-10T01:08:25;14.50;99.90
64654;DHT22;51065;48.884;12.598;2022-07-10T01:10:50;14.60;99.90
64654;DHT22;51065;48.884;12.598;2022-07-10T01:13:17;14.60;99.90
64654;DHT22;51065;48.884;12.598;2022-07-10T01:15:42;14.60;99.90
64654;DHT22;51065;48.884;12.598;2022-07-10T01:18:08;14.60;99.90
64654;DHT22;51065;48.884;12.598;2022-07-10T01:20:34;14.60;99.90
64654;DHT22;51065;48.884;12.598;2022-07-10T01:23:01;14.60;99.90
64654;DHT22;51065;48.884;12.598;2022-07-10T01:25:27;14.60;99.90
64654;DHT22;51065;48.884;12.598;2022-07-10T01:27:53;14.60;99.90
64654;DHT22;51065;48.884;12.598;2022-07-10T01:30:19;14.60;99.90
64654;DHT22;51065;48.884;12.598;2022-07-10T01:32:46;14.60;99.90
64654;DHT22;51065;48.884;12.598;2022-07-10T01:35:12;14.60;99.90
64654;DHT22;51065;48.884;12.598;2022-07-10T01:37:39;14.50;99.90
64654;DHT22;51065;48.884;12.598;2022-07-10T01:40:06;14.50;99.90
64654;DHT22;51065;48.884;12.598;2022-07-10T01:42:32;14.40;99.90
64654;DHT22;51065;48.884;12.598;2022-07-10T01:44:57;14.40;99.90
64654;DHT22;51065;48.884;12.598;2022-07-10T01:47:23;14.40;99.90
64654;DHT22;51065;48.884;12.598;2022-07-10T01:49:53;14.30;99.90
64654;DHT22;51065;48.884;12.598;2022-07-10T01:52:20;14.30;99.90
64654;DHT22;51065;48.884;12.598;2022-07-10T01:54:46;14.10;99.90
64654;DHT22;51065;48.884;12.598;2022-07-10T01:57:12;14.20;99.90
64654;DHT22;51065;48.884;12.598;2022-07-10T01:59:39;14.10;99.90
64654;DHT22;51065;48.884;12.598;2022-07-10T02:02:04;14.20;99.90
64654;DHT22;51065;48.884;12.598;2022-07-10T02:04:30;14.20;99.90
64654;DHT22;51065;48.884;12.598;2022-07-10T02:07:16;14.20;99.90
64654;DHT22;51065;48.884;12.598;2022-07-10T02:09:42;14.10;99.90
64654;DHT22;51065;48.884;12.598;2022-07-10T02:12:10;14.10;99.90
64654;DHT22;51065;48.884;12.598;2022-07-10T02:14:36;14.00;99.90
64654;DHT22;51065;48.884;12.598;2022-07-10T02:17:03;14.00;99.90
64654;DHT22;51065;48.884;12.598;2022-07-10T02:19:29;13.90;99.90
64654;DHT22;51065;48.884;12.598;2022-07-10T02:21:55;13.90;99.90
64654;DHT22;51065;48.884;12.598;2022-07-10T02:24:20;13.90;99.90
64654;DHT22;51065;48.884;12.598;2022-07-10T02:26:46;13.80;99.90
64654;DHT22;51065;48.884;12.598;2022-07-10T02:29:12;13.80;99.90
64654;DHT22;51065;48.884;12.598;2022-07-10T02:31:38;13.70;99.90
64654;DHT22;51065;48.884;12.598;2022-07-10T02:34:07;13.70;99.90
64654;DHT22;51065;48.884;12.598;2022-07-10T02:36:33;13.60;99.90
64654;DHT22;51065;48.884;12.598;2022-07-10T02:38:59;13.50;99.90
64654;DHT22;51065;48.884;12.598;2022-07-10T02:41:25;13.60;99.90
64654;DHT22;51065;48.884;12.598;2022-07-10T02:43:50;13.60;99.90
64654;DHT22;51065;48.884;12.598;2022-07-10T02:46:16;13.60;99.90
64654;DHT22;51065;48.884;12.598;2022-07-10T02:48:42;13.70;99.90
64654;DHT22;51065;48.884;12.598;2022-07-10T02:51:07;13.80;99.90
64654;DHT22;51065;48.884;12.598;2022-07-10T02:53:33;13.80;99.90
64654;DHT22;51065;48.884;12.598;2022-07-10T02:55:58;13.70;99.90
64654;DHT22;51065;48.884;12.598;2022-07-10T02:58:24;13.80;99.90
64654;DHT22;51065;48.884;12.598;2022-07-10T03:00:50;13.70;99.90
64654;DHT22;51065;48.884;12.598;2022-07-10T03:03:16;13.70;99.90
64654;DHT22;51065;48.884;12.598;2022-07-10T03:05:43;13.70;99.90
64654;DHT22;51065;48.884;12.598;2022-07-10T03:08:09;13.70;99.90
64654;DHT22;51065;48.884;12.598;2022-07-10T03:10:35;13.70;99.90
64654;DHT22;51065;48.884;12.598;2022-07-10T03:13:01;13.60;99.90
64654;DHT22;51065;48.884;12.598;2022-07-10T03:15:26;13.70;99.90
64654;DHT22;51065;48.884;12.598;2022-07-10T03:17:52;13.70;99.90
64654;DHT22;51065;48.884;12.598;2022-07-10T03:20:18;13.70;99.90
64654;DHT22;51065;48.884;12.598;2022-07-10T03:22:43;13.70;99.90
64654;DHT22;51065;48.884;12.598;2022-07-10T03:25:09;13.70;99.90
64654;DHT22;51065;48.884;12.598;2022-07-10T03:27:35;13.70;99.90
64654;DHT22;51065;48.884;12.598;2022-07-10T03:30:00;13.70;99.90
64654;DHT22;51065;48.884;12.598;2022-07-10T03:32:26;13.70;99.90
64654;DHT22;51065;48.884;12.598;2022-07-10T03:34:52;13.70;99.90
64654;DHT22;51065;48.884;12.598;2022-07-10T03:37:18;13.80;99.90
64654;DHT22;51065;48.884;12.598;2022-07-10T03:39:43;13.80;99.90
64654;DHT22;51065;48.884;12.598;2022-07-10T03:42:09;13.80;99.90
64654;DHT22;51065;48.884;12.598;2022-07-10T03:44:34;13.80;99.90
64654;DHT22;51065;48.884;12.598;2022-07-10T03:47:00;13.80;99.90
64654;DHT22;51065;48.884;12.598;2022-07-10T03:49:26;13.80;99.90
64654;DHT22;51065;48.884;12.598;2022-07-10T03:51:51;13.80;99.90
64654;DHT22;51065;48.884;12.598;2022-07-10T03:54:17;13.70;99.90
64654;DHT22;51065;48.884;12.598;2022-07-10T03:56:42;13.70;99.90
64654;DHT22;51065;48.884;12.598;2022-07-10T03:59:27;13.70;99.90
64654;DHT22;51065;48.884;12.598;2022-07-10T04:01:53;13.70;99.90
64654;DHT22;51065;48.884;12.598;2022-07-10T04:04:18;13.70;99.90
64654;DHT22;51065;48.884;12.598;2022-07-10T04:06:44;13.70;99.90
64654;DHT22;51065;48.884;12.598;2022-07-10T04:09:09;13.70;99.90
64654;DHT22;51065;48.884;12.598;2022-07-10T04:11:35;13.60;99.90
64654;DHT22;51065;48.884;12.598;2022-07-10T04:14:01;13.70;99.90
64654;DHT22;51065;48.884;12.598;2022-07-10T04:16:27;13.70;99.90
64654;DHT22;51065;48.884;12.598;2022-07-10T04:18:52;13.70;99.90
64654;DHT22;51065;48.884;12.598;2022-07-10T04:21:19;13.70;99.90
64654;DHT22;51065;48.884;12.598;2022-07-10T04:23:44;13.70;99.90
64654;DHT22;51065;48.884;12.598;2022-07-10T04:26:10;13.70;99.90
64654;DHT22;51065;48.884;12.598;2022-07-10T04:28:36;13.70;99.90
64654;DHT22;51065;48.884;12.598;2022-07-10T04:31:01;13.80;99.90
64654;DHT22;51065;48.884;12.598;2022-07-10T04:33:27;13.80;99.90
64654;DHT22;51065;48.884;12.598;2022-07-10T04:35:52;14.00;99.90
64654;DHT22;51065;48.884;12.598;2022-07-10T04:38:18;14.10;99.90
64654;DHT22;51065;48.884;12.598;2022-07-10T04:40:43;14.10;99.90
64654;DHT22;51065;48.884;12.598;2022-07-10T04:43:09;14.20;99.90
64654;DHT22;51065;48.884;12.598;2022-07-10T04:45:37;14.30;99.90
64654;DHT22;51065;48.884;12.598;2022-07-10T04:48:04;14.50;99.90
64654;DHT22;51065;48.884;12.598;2022-07-10T04:50:30;14.60;99.90
64654;DHT22;51065;48.884;12.598;2022-07-10T04:52:56;14.60;99.90
64654;DHT22;51065;48.884;12.598;2022-07-10T04:55:22;15.00;99.90
64654;DHT22;51065;48.884;12.598;2022-07-10T04:57:48;15.20;99.90
64654;DHT22;51065;48.884;12.598;2022-07-10T05:00:14;15.50;99.90
64654;DHT22;51065;48.884;12.598;2022-07-10T05:02:39;15.90;99.90
64654;DHT22;51065;48.884;12.598;2022-07-10T05:05:05;16.10;99.90
64654;DHT22;51065;48.884;12.598;2022-07-10T05:07:31;16.10;99.90
64654;DHT22;51065;48.884;12.598;2022-07-10T05:09:57;16.30;99.90
64654;DHT22;51065;48.884;12.598;2022-07-10T05:12:22;16.60;99.90
64654;DHT22;51065;48.884;12.598;2022-07-10T05:14:48;17.10;99.90
64654;DHT22;51065;48.884;12.598;2022-07-10T05:17:13;17.10;99.90
64654;DHT22;51065;48.884;12.598;2022-07-10T05:19:39;16.90;99.90
64654;DHT22;51065;48.884;12.598;2022-07-10T05:22:04;16.60;99.90
64654;DHT22;51065;48.884;12.598;2022-07-10T05:24:30;16.30;99.90
64654;DHT22;51065;48.884;12.598;2022-07-10T05:26:56;16.00;99.90
64654;DHT22;51065;48.884;12.598;2022-07-10T05:29:21;15.90;99.90
64654;DHT22;51065;48.884;12.598;2022-07-10T05:31:47;15.60;99.90
64654;DHT22;51065;48.884;12.598;2022-07-10T05:34:13;15.60;99.90
64654;DHT22;51065;48.884;12.598;2022-07-10T05:36:38;15.70;99.90
64654;DHT22;51065;48.884;12.598;2022-07-10T05:39:04;15.60;99.90
64654;DHT22;51065;48.884;12.598;2022-07-10T05:41:29;15.60;99.90
64654;DHT22;51065;48.884;12.598;2022-07-10T05:43:58;15.60;99.90
64654;DHT22;51065;48.884;12.598;2022-07-10T05:46:24;15.70;99.90
64654;DHT22;51065;48.884;12.598;2022-07-10T05:48:49;15.60;99.90
64654;DHT22;51065;48.884;12.598;2022-07-10T05:51:15;15.60;99.90
64654;DHT22;51065;48.884;12.598;2022-07-10T05:53:40;15.60;99.90
64654;DHT22;51065;48.884;12.598;2022-07-10T05:56:06;15.60;99.90
64654;DHT22;51065;48.884;12.598;2022-07-10T05:58:32;15.70;99.90
64654;DHT22;51065;48.884;12.598;2022-07-10T06:00:57;15.80;99.90
64654;DHT22;51065;48.884;12.598;2022-07-10T06:03:23;16.20;99.90
64654;DHT22;51065;48.884;12.598;2022-07-10T06:05:49;16.80;99.90
64654;DHT22;51065;48.884;12.598;2022-07-10T06:08:15;17.40;99.90
64654;DHT22;51065;48.884;12.598;2022-07-10T06:10:41;17.70;99.90
64654;DHT22;51065;48.884;12.598;2022-07-10T06:13:09;17.70;99.90
64654;DHT22;51065;48.884;12.598;2022-07-10T06:15:35;17.50;99.90
64654;DHT22;51065;48.884;12.598;2022-07-10T06:18:01;17.50;99.90
64654;DHT22;51065;48.884;12.598;2022-07-10T06:20:26;17.50;99.90
64654;DHT22;51065;48.884;12.598;2022-07-10T06:22:52;17.70;99.90
64654;DHT22;51065;48.884;12.598;2022-07-10T06:25:18;17.80;99.90
64654;DHT22;51065;48.884;12.598;2022-07-10T06:27:43;18.20;99.90
64654;DHT22;51065;48.884;12.598;2022-07-10T06:30:09;19.00;99.00
64654;DHT22;51065;48.884;12.598;2022-07-10T06:32:36;19.50;95.90
64654;DHT22;51065;48.884;12.598;2022-07-10T06:35:02;19.30;96.10
64654;DHT22;51065;48.884;12.598;2022-07-10T06:37:33;19.10;94.30
64654;DHT22;51065;48.884;12.598;2022-07-10T06:39:59;18.80;95.20
64654;DHT22;51065;48.884;12.598;2022-07-10T06:42:25;18.70;93.60
64654;DHT22;51065;48.884;12.598;2022-07-10T06:44:50;18.30;95.20
64654;DHT22;51065;48.884;12.598;2022-07-10T06:47:18;18.20;93.70
64654;DHT22;51065;48.884;12.598;2022-07-10T06:50:07;17.70;97.60
64654;DHT22;51065;48.884;12.598;2022-07-10T06:52:34;17.90;99.20
64654;DHT22;51065;48.884;12.598;2022-07-10T06:55:00;18.50;95.20
64654;DHT22;51065;48.884;12.598;2022-07-10T06:57:26;19.10;93.20
64654;DHT22;51065;48.884;12.598;2022-07-10T06:59:52;19.10;92.90
64654;DHT22;51065;48.884;12.598;2022-07-10T07:02:19;18.80;91.80
64654;DHT22;51065;48.884;12.598;2022-07-10T07:04:45;18.30;94.80
64654;DHT22;51065;48.884;12.598;2022-07-10T07:07:12;18.20;96.20
64654;DHT22;51065;48.884;12.598;2022-07-10T07:09:38;18.20;96.00
64654;DHT22;51065;48.884;12.598;2022-07-10T07:12:05;18.30;93.50
64654;DHT22;51065;48.884;12.598;2022-07-10T07:14:31;18.40;94.70
64654;DHT22;51065;48.884;12.598;2022-07-10T07:16:56;18.70;92.40
64654;DHT22;51065;48.884;12.598;2022-07-10T07:19:33;18.60;90.70
64654;DHT22;51065;48.884;12.598;2022-07-10T07:22:21;18.70;86.10
64654;DHT22;51065;48.884;12.598;2022-07-10T07:25:07;18.90;81.70
64654;DHT22;51065;48.884;12.598;2022-07-10T07:27:34;19.00;80.60
64654;DHT22;51065;48.884;12.598;2022-07-10T07:30:08;19.30;84.90
64654;DHT22;51065;48.884;12.598;2022-07-10T07:32:34;19.40;79.00
64654;DHT22;51065;48.884;12.598;2022-07-10T07:35:00;19.20;80.30
64654;DHT22;51065;48.884;12.598;2022-07-10T07:37:47;18.90;78.60
64654;DHT22;51065;48.884;12.598;2022-07-10T07:40:15;18.20;83.20
64654;DHT22;51065;48.884;12.598;2022-07-10T07:42:40;18.00;85.50
64654;DHT22;51065;48.884;12.598;2022-07-10T07:45:08;17.70;84.10
64654;DHT22;51065;48.884;12.598;2022-07-10T07:47:54;17.10;90.40
64654;DHT22;51065;48.884;12.598;2022-07-10T07:50:54;16.90;93.20
64654;DHT22;51065;48.884;12.598;2022-07-10T07:53:13;16.90;92.60
64654;DHT22;51065;48.884;12.598;2022-07-10T07:55:39;16.70;91.50
64654;DHT22;51065;48.884;12.598;2022-07-10T07:58:05;16.80;93.30
64654;DHT22;51065;48.884;12.598;2022-07-10T08:00:31;16.70;91.30
64654;DHT22;51065;48.884;12.598;2022-07-10T08:02:57;16.60;94.50
64654;DHT22;51065;48.884;12.598;2022-07-10T08:05:23;16.70;92.00
64654;DHT22;51065;48.884;12.598;2022-07-10T08:07:52;16.70;92.30
64654;DHT22;51065;48.884;12.598;2022-07-10T08:10:20;16.80;90.10
64654;DHT22;51065;48.884;12.598;2022-07-10T08:12:46;17.10;88.90
64654;DHT22;51065;48.884;12.598;2022-07-10T08:15:14;17.50;81.80
64654;DHT22;51065;48.884;12.598;2022-07-10T08:17:40;17.70;77.20
64654;DHT22;51065;48.884;12.598;2022-07-10T08:20:07;18.00;74.60
64654;DHT22;51065;48.884;12.598;2022-07-10T08:22:34;18.50;73.30
64654;DHT22;51065;48.884;12.598;2022-07-10T08:25:00;18.80;69.20
64654;DHT22;51065;48.884;12.598;2022-07-10T08:27:26;19.20;69.90
64654;DHT22;51065;48.884;12.598;2022-07-10T08:29:51;19.60;64.50
64654;DHT22;51065;48.884;12.598;2022-07-10T08:32:17;19.40;63.00
64654;DHT22;51065;48.884;12.598;2022-07-10T08:34:43;19.30;63.90
64654;DHT22;51065;48.884;12.598;2022-07-10T08:37:08;19.60;64.30
64654;DHT22;51065;48.884;12.598;2022-07-10T08:39:34;20.60;61.50
64654;DHT22;51065;48.884;12.598;2022-07-10T08:42:00;20.80;60.10
64654;DHT22;51065;48.884;12.598;2022-07-10T08:44:27;21.20;57.50
64654;DHT22;51065;48.884;12.598;2022-07-10T08:46:53;20.60;58.20
64654;DHT22;51065;48.884;12.598;2022-07-10T08:49:20;20.30;60.20
64654;DHT22;51065;48.884;12.598;2022-07-10T08:52:03;20.50;61.40
64654;DHT22;51065;48.884;12.598;2022-07-10T08:54:30;20.60;58.80
64654;DHT22;51065;48.884;12.598;2022-07-10T08:56:57;21.50;56.00
64654;DHT22;51065;48.884;12.598;2022-07-10T08:59:23;22.00;56.10
64654;DHT22;51065;48.884;12.598;2022-07-10T09:01:49;21.30;54.60
64654;DHT22;51065;48.884;12.598;2022-07-10T09:04:17;20.60;56.10
64654;DHT22;51065;48.884;12.598;2022-07-10T09:06:43;20.80;58.30
64654;DHT22;51065;48.884;12.598;2022-07-10T09:09:09;20.90;56.90
64654;DHT22;51065;48.884;12.598;2022-07-10T09:11:36;20.70;57.60
64654;DHT22;51065;48.884;12.598;2022-07-10T09:14:04;20.90;59.70
64654;DHT22;51065;48.884;12.598;2022-07-10T09:16:35;21.50;55.10
64654;DHT22;51065;48.884;12.598;2022-07-10T09:21:46;20.20;57.30
64654;DHT22;51065;48.884;12.598;2022-07-10T09:24:12;19.70;59.10
64654;DHT22;51065;48.884;12.598;2022-07-10T09:26:39;20.80;58.10
64654;DHT22;51065;48.884;12.598;2022-07-10T09:29:11;21.60;56.50
64654;DHT22;51065;48.884;12.598;2022-07-10T09:31:50;22.10;54.40
64654;DHT22;51065;48.884;12.598;2022-07-10T09:34:17;21.90;54.20
64654;DHT22;51065;48.884;12.598;2022-07-10T09:36:43;21.50;52.80
64654;DHT22;51065;48.884;12.598;2022-07-10T09:39:09;21.70;56.20
64654;DHT22;51065;48.884;12.598;2022-07-10T09:41:35;21.30;54.80
64654;DHT22;51065;48.884;12.598;2022-07-10T09:44:05;21.50;56.20
64654;DHT22;51065;48.884;12.598;2022-07-10T09:46:37;22.30;53.00
64654;DHT22;51065;48.884;12.598;2022-07-10T09:51:38;22.30;48.40
64654;DHT22;51065;48.884;12.598;2022-07-10T09:54:06;21.60;49.40
64654;DHT22;51065;48.884;12.598;2022-07-10T09:56:43;21.30;51.40
64654;DHT22;51065;48.884;12.598;2022-07-10T09:59:12;20.50;53.40
64654;DHT22;51065;48.884;12.598;2022-07-10T10:01:45;19.80;56.60
64654;DHT22;51065;48.884;12.598;2022-07-10T10:04:12;19.80;56.30
64654;DHT22;51065;48.884;12.598;2022-07-10T10:06:40;20.60;55.20
64654;DHT22;51065;48.884;12.598;2022-07-10T10:09:24;21.10;54.10
64654;DHT22;51065;48.884;12.598;2022-07-10T10:11:56;21.10;52.10
64654;DHT22;51065;48.884;12.598;2022-07-10T10:14:23;20.70;52.90
64654;DHT22;51065;48.884;12.598;2022-07-10T10:16:50;20.60;52.10
64654;DHT22;51065;48.884;12.598;2022-07-10T10:19:18;21.00;52.10
64654;DHT22;51065;48.884;12.598;2022-07-10T10:22:04;21.40;52.70
64654;DHT22;51065;48.884;12.598;2022-07-10T10:24:32;22.50;51.20
64654;DHT22;51065;48.884;12.598;2022-07-10T10:26:59;23.00;45.80
64654;DHT22;51065;48.884;12.598;2022-07-10T10:29:25;22.90;46.60
64654;DHT22;51065;48.884;12.598;2022-07-10T10:31:51;22.40;46.20
64654;DHT22;51065;48.884;12.598;2022-07-10T10:34:37;22.00;46.40
64654;DHT22;51065;48.884;12.598;2022-07-10T10:37:04;21.90;47.10
64654;DHT22;51065;48.884;12.598;2022-07-10T10:39:51;21.40;48.40
64654;DHT22;51065;48.884;12.598;2022-07-10T10:42:38;21.90;46.10
64654;DHT22;51065;48.884;12.598;2022-07-10T10:48:08;23.30;46.30
64654;DHT22;51065;48.884;12.598;2022-07-10T10:50:41;22.50;42.70
64654;DHT22;51065;48.884;12.598;2022-07-10T10:53:17;21.70;46.70
64654;DHT22;51065;48.884;12.598;2022-07-10T10:58:40;22.10;45.80
64654;DHT22;51065;48.884;12.598;2022-07-10T11:04:13;22.30;44.90
64654;DHT22;51065;48.884;12.598;2022-07-10T11:06:44;22.50;44.10
64654;DHT22;51065;48.884;12.598;2022-07-10T11:09:28;22.10;44.90
64654;DHT22;51065;48.884;12.598;2022-07-10T11:12:10;21.10;46.70
64654;DHT22;51065;48.884;12.598;2022-07-10T11:14:45;22.10;46.70
64654;DHT22;51065;48.884;12.598;2022-07-10T11:17:13;22.30;46.80
64654;DHT22;51065;48.884;12.598;2022-07-10T11:19:39;22.30;44.00
64654;DHT22;51065;48.884;12.598;2022-07-10T11:28:13;21.80;45.60
64654;DHT22;51065;48.884;12.598;2022-07-10T11:30:45;21.40;47.20
64654;DHT22;51065;48.884;12.598;2022-07-10T11:33:11;21.40;48.60
64654;DHT22;51065;48.884;12.598;2022-07-10T11:35:38;21.70;46.10
64654;DHT22;51065;48.884;12.598;2022-07-10T11:38:04;21.80;46.80
64654;DHT22;51065;48.884;12.598;2022-07-10T11:40:30;21.80;46.80
64654;DHT22;51065;48.884;12.598;2022-07-10T11:43:00;21.80;45.20
64654;DHT22;51065;48.884;12.598;2022-07-10T11:45:31;21.70;48.10
64654;DHT22;51065;48.884;12.598;2022-07-10T11:47:58;21.80;46.30
64654;DHT22;51065;48.884;12.598;2022-07-10T11:50:24;21.90;48.50
64654;DHT22;51065;48.884;12.598;2022-07-10T11:52:50;21.40;46.10
64654;DHT22;51065;48.884;12.598;2022-07-10T11:55:17;21.20;47.00
64654;DHT22;51065;48.884;12.598;2022-07-10T11:57:43;20.80;47.80
64654;DHT22;51065;48.884;12.598;2022-07-10T12:00:28;20.40;49.10
64654;DHT22;51065;48.884;12.598;2022-07-10T12:02:56;20.50;49.40
64654;DHT22;51065;48.884;12.598;2022-07-10T12:05:40;21.70;46.20
64654;DHT22;51065;48.884;12.598;2022-07-10T12:08:05;22.10;44.60
64654;DHT22;51065;48.884;12.598;2022-07-10T12:10:33;21.40;44.10
64654;DHT22;51065;48.884;12.598;2022-07-10T12:15:37;20.10;47.30
64654;DHT22;51065;48.884;12.598;2022-07-10T12:18:23;20.00;49.80
64654;DHT22;51065;48.884;12.598;2022-07-10T12:20:50;20.60;50.40
64654;DHT22;51065;48.884;12.598;2022-07-10T12:23:18;20.90;49.10
64654;DHT22;51065;48.884;12.598;2022-07-10T12:25:46;20.90;46.00
64654;DHT22;51065;48.884;12.598;2022-07-10T12:28:13;20.80;47.40
64654;DHT22;51065;48.884;12.598;2022-07-10T12:30:44;20.80;49.60
64654;DHT22;51065;48.884;12.598;2022-07-10T12:33:19;20.60;50.80
64654;DHT22;51065;48.884;12.598;2022-07-10T12:38:22;22.40;48.50
64654;DHT22;51065;48.884;12.598;2022-07-10T12:40:48;23.00;43.70
64654;DHT22;51065;48.884;12.598;2022-07-10T12:43:29;23.40;42.50
64654;DHT22;51065;48.884;12.598;2022-07-10T12:46:16;22.60;42.80
64654;DHT22;51065;48.884;12.598;2022-07-10T12:49:04;22.20;43.60
64654;DHT22;51065;48.884;12.598;2022-07-10T12:51:32;22.60;42.10
64654;DHT22;51065;48.884;12.598;2022-07-10T12:53:58;21.90;43.60
64654;DHT22;51065;48.884;12.598;2022-07-10T12:58:57;20.90;45.30
64654;DHT22;51065;48.884;12.598;2022-07-10T13:01:22;20.30;48.20
64654;DHT22;51065;48.884;12.598;2022-07-10T13:03:48;20.20;49.10
64654;DHT22;51065;48.884;12.598;2022-07-10T13:06:33;20.10;48.50
64654;DHT22;51065;48.884;12.598;2022-07-10T13:09:00;20.00;48.00
64654;DHT22;51065;48.884;12.598;2022-07-10T13:11:26;20.50;48.50
64654;DHT22;51065;48.884;12.598;2022-07-10T13:13:52;20.80;46.60
64654;DHT22;51065;48.884;12.598;2022-07-10T13:16:18;20.80;46.90
64654;DHT22;51065;48.884;12.598;2022-07-10T13:18:44;20.60;47.90
64654;DHT22;51065;48.884;12.598;2022-07-10T13:21:10;20.60;47.90
64654;DHT22;51065;48.884;12.598;2022-07-10T13:23:36;20.50;50.50
64654;DHT22;51065;48.884;12.598;2022-07-10T13:26:03;20.50;48.60
64654;DHT22;51065;48.884;12.598;2022-07-10T13:28:29;20.60;49.00
64654;DHT22;51065;48.884;12.598;2022-07-10T13:30:55;20.70;47.00
64654;DHT22;51065;48.884;12.598;2022-07-10T13:33:21;20.70;47.50
64654;DHT22;51065;48.884;12.598;2022-07-10T13:35:48;20.70;47.70
64654;DHT22;51065;48.884;12.598;2022-07-10T13:38:14;20.30;47.40
64654;DHT22;51065;48.884;12.598;2022-07-10T13:40:40;20.60;49.10
64654;DHT22;51065;48.884;12.598;2022-07-10T13:43:06;20.40;49.70
64654;DHT22;51065;48.884;12.598;2022-07-10T13:45:35;20.30;48.20
64654;DHT22;51065;48.884;12.598;2022-07-10T13:48:10;20.20;47.80
64654;DHT22;51065;48.884;12.598;2022-07-10T13:50:43;20.50;49.00
64654;DHT22;51065;48.884;12.598;2022-07-10T13:53:11;20.40;47.60
64654;DHT22;51065;48.884;12.598;2022-07-10T13:55:37;20.30;47.90
64654;DHT22;51065;48.884;12.598;2022-07-10T13:58:03;20.30;47.60
64654;DHT22;51065;48.884;12.598;2022-07-10T14:00:28;20.50;46.80
64654;DHT22;51065;48.884;12.598;2022-07-10T14:02:54;20.40;46.10
64654;DHT22;51065;48.884;12.598;2022-07-10T14:05:23;20.60;48.40
64654;DHT22;51065;48.884;12.598;2022-07-10T14:07:49;21.00;46.80
64654;DHT22;51065;48.884;12.598;2022-07-10T14:10:15;21.20;45.20
64654;DHT22;51065;48.884;12.598;2022-07-10T14:12:41;21.20;46.80
64654;DHT22;51065;48.884;12.598;2022-07-10T14:15:08;21.20;45.70
64654;DHT22;51065;48.884;12.598;2022-07-10T14:17:33;20.90;46.10
64654;DHT22;51065;48.884;12.598;2022-07-10T14:19:59;20.70;48.00
64654;DHT22;51065;48.884;12.598;2022-07-10T14:22:25;20.80;47.60
64654;DHT22;51065;48.884;12.598;2022-07-10T14:24:51;20.60;47.70
64654;DHT22;51065;48.884;12.598;2022-07-10T14:27:17;20.30;47.80
64654;DHT22;51065;48.884;12.598;2022-07-10T14:29:43;20.30;46.20
64654;DHT22;51065;48.884;12.598;2022-07-10T14:32:08;20.30;47.70
64654;DHT22;51065;48.884;12.598;2022-07-10T14:34:34;20.50;47.20
64654;DHT22;51065;48.884;12.598;2022-07-10T14:37:00;20.30;46.30
64654;DHT22;51065;48.884;12.598;2022-07-10T14:39:26;20.20;45.70
64654;DHT22;51065;48.884;12.598;2022-07-10T14:41:51;19.90;46.80
64654;DHT22;51065;48.884;12.598;2022-07-10T14:44:17;19.80;47.90
64654;DHT22;51065;48.884;12.598;2022-07-10T14:46:43;19.80;47.80
64654;DHT22;51065;48.884;12.598;2022-07-10T14:49:09;19.80;48.80
64654;DHT22;51065;48.884;12.598;2022-07-10T14:51:34;19.80;48.40
64654;DHT22;51065;48.884;12.598;2022-07-10T14:54:01;19.70;48.10
64654;DHT22;51065;48.884;12.598;2022-07-10T14:56:27;19.60;48.50
64654;DHT22;51065;48.884;12.598;2022-07-10T14:58:53;19.50;49.30
64654;DHT22;51065;48.884;12.598;2022-07-10T15:01:18;19.60;50.20
64654;DHT22;51065;48.884;12.598;2022-07-10T15:03:44;19.40;48.30
64654;DHT22;51065;48.884;12.598;2022-07-10T15:06:10;19.40;48.30
64654;DHT22;51065;48.884;12.598;2022-07-10T15:08:36;19.30;49.40
64654;DHT22;51065;48.884;12.598;2022-07-10T15:11:02;19.10;50.60
64654;DHT22;51065;48.884;12.598;2022-07-10T15:13:28;19.10;49.70
64654;DHT22;51065;48.884;12.598;2022-07-10T15:15:54;18.90;50.30
64654;DHT22;51065;48.884;12.598;2022-07-10T15:18:20;18.90;51.80
64654;DHT22;51065;48.884;12.598;2022-07-10T15:20:46;18.90;51.10
64654;DHT22;51065;48.884;12.598;2022-07-10T15:23:12;18.90;51.60
64654;DHT22;51065;48.884;12.598;2022-07-10T15:25:44;18.80;50.20
64654;DHT22;51065;48.884;12.598;2022-07-10T15:28:10;18.70;51.40
64654;DHT22;51065;48.884;12.598;2022-07-10T15:30:37;18.70;49.60
64654;DHT22;51065;48.884;12.598;2022-07-10T15:33:06;18.60;51.40
64654;DHT22;51065;48.884;12.598;2022-07-10T15:35:32;18.60;51.50
64654;DHT22;51065;48.884;12.598;2022-07-10T15:37:58;18.60;52.10
64654;DHT22;51065;48.884;12.598;2022-07-10T15:40:28;18.60;52.30
64654;DHT22;51065;48.884;12.598;2022-07-10T15:42:54;18.70;51.60
64654;DHT22;51065;48.884;12.598;2022-07-10T15:45:22;18.70;51.20